createdAt,value
2023-04-26T04:00:36.309Z,84.74
2023-04-26T04:01:37.294Z,84.53
2023-04-26T04:02:37.407Z,84.64
2023-04-26T04:03:40.061Z,84.74
2023-04-26T04:04:37.428Z,84.64
2023-04-26T04:05:37.439Z,84.43
2023-04-26T04:06:37.253Z,84.53
2023-04-26T04:07:37.229Z,84.53
2023-04-26T04:08:37.203Z,84.43
2023-04-26T04:09:37.214Z,84.53
2023-04-26T04:10:37.185Z,84.43
2023-04-26T04:11:37.184Z,84.33
2023-04-26T04:12:37.177Z,84.22
2023-04-26T04:13:37.159Z,84.43
2023-04-26T04:14:37.169Z,84.53
2023-04-26T04:15:37.177Z,84.22
2023-04-26T04:16:37.128Z,84.22
2023-04-26T04:17:38.548Z,84.22
2023-04-26T04:18:37.103Z,84.22
2023-04-26T04:19:37.097Z,84.22
2023-04-26T04:20:37.152Z,84.22
2023-04-26T04:21:37.066Z,84.22
2023-04-26T04:22:37.077Z,84.33
2023-04-26T04:23:37.055Z,84.12
2023-04-26T04:24:37.056Z,84.12
2023-04-26T04:25:37.032Z,84.01
2023-04-26T04:26:37.037Z,83.91
2023-04-26T04:27:37.034Z,83.91
2023-04-26T04:28:37.002Z,84.01
2023-04-26T04:29:36.986Z,84.22
2023-04-26T04:30:36.980Z,84.12
2023-04-26T04:31:37.114Z,84.12
2023-04-26T04:32:37.025Z,84.12
2023-04-26T04:33:36.947Z,84.12
2023-04-26T04:34:36.938Z,84.22
2023-04-26T04:35:36.918Z,84.19
2023-04-26T04:36:36.904Z,83.70
2023-04-26T04:37:36.937Z,83.70
2023-04-26T04:38:36.904Z,83.91
2023-04-26T04:39:36.885Z,83.91
2023-04-26T04:40:36.884Z,83.91
2023-04-26T04:41:36.876Z,84.01
2023-04-26T04:42:36.851Z,84.01
2023-04-26T04:43:36.852Z,83.81
2023-04-26T04:44:36.846Z,83.91
2023-04-26T04:45:36.841Z,83.81
2023-04-26T04:46:36.826Z,83.67
2023-04-26T04:47:36.828Z,83.46
2023-04-26T04:48:36.796Z,83.67
2023-04-26T04:49:36.774Z,83.56
2023-04-26T04:50:36.795Z,83.25
2023-04-26T04:51:36.747Z,83.36
2023-04-26T04:52:36.763Z,83.25
2023-04-26T04:53:36.743Z,83.36
2023-04-26T04:54:36.735Z,82.94
2023-04-26T04:55:36.730Z,82.84
2023-04-26T04:56:36.706Z,82.73
2023-04-26T04:57:36.694Z,82.73
2023-04-26T04:58:36.704Z,82.94
2023-04-26T04:59:36.663Z,82.73
2023-04-26T05:00:36.677Z,82.59
2023-04-26T05:01:36.727Z,82.32
2023-04-26T05:02:36.777Z,82.49
2023-04-26T05:03:36.722Z,82.28
2023-04-26T05:04:36.867Z,82.28
2023-04-26T05:05:36.599Z,82.07
2023-04-26T05:06:36.607Z,82.18
2023-04-26T05:07:36.589Z,82.18
2023-04-26T05:08:36.585Z,81.97
2023-04-26T05:09:36.563Z,82.07
2023-04-26T05:10:36.567Z,82.49
2023-04-26T05:11:36.536Z,82.18
2023-04-26T05:12:36.538Z,81.76
2023-04-26T05:13:36.524Z,81.62
2023-04-26T05:14:36.533Z,81.62
2023-04-26T05:15:36.492Z,81.41
2023-04-26T05:16:36.508Z,81.30
2023-04-26T05:17:36.535Z,81.20
2023-04-26T05:18:36.477Z,81.20
2023-04-26T05:19:36.473Z,81.20
2023-04-26T05:20:36.449Z,81.20
2023-04-26T05:21:36.526Z,80.99
2023-04-26T05:22:36.436Z,80.68
2023-04-26T05:23:36.424Z,80.65
2023-04-26T05:24:36.428Z,80.68
2023-04-26T05:25:36.409Z,80.44
2023-04-26T05:26:36.398Z,80.44
2023-04-26T05:27:36.387Z,80.13
2023-04-26T05:28:36.370Z,80.23
2023-04-26T05:29:36.368Z,80.13
2023-04-26T05:30:36.370Z,80.23
2023-04-26T05:31:36.390Z,80.33
2023-04-26T05:32:36.341Z,79.92
2023-04-26T05:33:36.304Z,79.92
2023-04-26T05:34:36.354Z,79.92
2023-04-26T05:35:36.305Z,79.78
2023-04-26T05:36:36.287Z,79.78
2023-04-26T05:37:36.290Z,79.47
2023-04-26T05:38:36.274Z,78.96
2023-04-26T05:39:36.297Z,79.06
2023-04-26T05:40:36.280Z,79.16
2023-04-26T05:41:36.308Z,78.85
2023-04-26T05:42:36.223Z,78.81
2023-04-26T05:43:36.223Z,78.61
2023-04-26T05:44:36.208Z,78.30
2023-04-26T05:45:36.202Z,77.67
2023-04-26T05:46:36.180Z,77.67
2023-04-26T05:47:36.182Z,77.67
2023-04-26T05:48:36.177Z,77.98
2023-04-26T05:49:36.159Z,77.78
2023-04-26T05:50:36.566Z,77.57
2023-04-26T05:51:36.122Z,77.33
2023-04-26T05:52:36.145Z,77.12
2023-04-26T05:53:36.127Z,77.33
2023-04-26T05:54:36.146Z,77.22
2023-04-26T05:55:36.108Z,76.46
2023-04-26T05:56:36.061Z,76.36
2023-04-26T05:57:36.150Z,76.15
2023-04-26T05:58:36.048Z,76.98
2023-04-26T05:59:36.050Z,76.36
2023-04-26T06:00:36.035Z,76.26
2023-04-26T06:01:36.003Z,75.95
2023-04-26T06:02:36.208Z,76.26
2023-04-26T06:03:36.315Z,76.05
2023-04-26T06:04:38.237Z,76.05
2023-04-26T06:05:35.985Z,76.05
2023-04-26T06:06:35.961Z,75.84
2023-04-26T06:07:35.958Z,75.84
2023-04-26T06:08:35.952Z,75.53
2023-04-26T06:09:35.916Z,75.63
2023-04-26T06:10:35.959Z,75.12
2023-04-26T06:11:35.921Z,75.32
2023-04-26T06:12:35.893Z,75.84
2023-04-26T06:13:35.888Z,75.63
2023-04-26T06:14:35.884Z,75.40
2023-04-26T06:15:35.893Z,74.98
2023-04-26T06:16:35.921Z,74.77
2023-04-26T06:17:35.899Z,74.74
2023-04-26T06:18:35.834Z,74.57
2023-04-26T06:19:35.832Z,74.43
2023-04-26T06:20:35.882Z,74.12
2023-04-26T06:21:35.810Z,74.33
2023-04-26T06:22:35.785Z,74.43
2023-04-26T06:23:35.820Z,74.12
2023-04-26T06:24:35.775Z,73.71
2023-04-26T06:25:35.757Z,73.67
2023-04-26T06:26:35.845Z,73.47
2023-04-26T06:27:35.847Z,73.74
2023-04-26T06:28:35.742Z,73.33
2023-04-26T06:29:35.794Z,71.95
2023-04-26T06:30:35.770Z,71.12
2023-04-26T06:31:35.882Z,70.82
2023-04-26T06:32:35.765Z,71.51
2023-04-26T06:33:35.706Z,69.72
2023-04-26T06:34:35.674Z,69.62
2023-04-26T06:35:35.650Z,69.62
2023-04-26T06:36:35.660Z,69.48
2023-04-26T06:37:35.639Z,68.96
2023-04-26T06:38:35.608Z,68.32
2023-04-26T06:39:35.635Z,68.62
2023-04-26T06:40:35.633Z,67.80
2023-04-26T06:41:35.631Z,67.39
2023-04-26T06:42:35.613Z,67.70
2023-04-26T06:43:35.560Z,68.01
2023-04-26T06:44:35.844Z,68.80
2023-04-26T06:45:35.609Z,67.46
2023-04-26T06:46:35.671Z,67.12
2023-04-26T06:47:35.685Z,66.47
2023-04-26T06:48:35.539Z,66.19
2023-04-26T06:49:35.614Z,65.06
2023-04-26T06:50:35.578Z,65.47
2023-04-26T06:51:35.531Z,65.68
2023-04-26T06:52:35.480Z,65.75
2023-04-26T06:53:35.518Z,64.48
2023-04-26T06:54:39.917Z,64.28
2023-04-26T06:55:35.451Z,64.59
2023-04-26T06:56:35.439Z,65.11
2023-04-26T06:57:35.452Z,64.28
2023-04-26T06:58:35.429Z,64.07
2023-04-26T06:59:35.400Z,63.46
2023-04-26T07:00:35.396Z,64.04
2023-04-26T07:01:35.464Z,64.51
2023-04-26T07:02:35.544Z,64.86
2023-04-26T07:03:35.502Z,64.86
2023-04-26T07:04:35.455Z,64.51
2023-04-26T07:05:35.329Z,63.97
2023-04-26T07:06:35.325Z,63.32
2023-04-26T07:07:35.298Z,63.32
2023-04-26T07:08:35.320Z,64.18
2023-04-26T07:09:35.296Z,63.97
2023-04-26T07:10:35.291Z,64.72
2023-04-26T07:11:35.265Z,64.72
2023-04-26T07:12:35.267Z,64.51
2023-04-26T07:13:35.269Z,64.00
2023-04-26T07:14:37.057Z,65.55
2023-04-26T07:15:35.268Z,64.48
2023-04-26T07:16:35.363Z,64.48
2023-04-26T07:17:35.334Z,65.44
2023-04-26T07:18:35.504Z,64.07
2023-04-26T07:19:35.403Z,64.36
2023-04-26T07:20:35.325Z,63.20
2023-04-26T07:21:35.156Z,62.55
2023-04-26T07:22:35.153Z,61.49
2023-04-26T07:23:35.139Z,61.52
2023-04-26T07:24:35.128Z,62.04
2023-04-26T07:25:35.108Z,61.72
2023-04-26T07:26:35.104Z,60.39
2023-04-26T07:27:35.082Z,60.19
2023-04-26T07:28:35.099Z,60.39
2023-04-26T07:29:35.067Z,61.11
2023-04-26T07:30:35.056Z,61.39
2023-04-26T07:31:35.052Z,61.24
2023-04-26T07:32:35.126Z,60.70
2023-04-26T07:33:35.218Z,61.11
2023-04-26T07:34:35.033Z,60.83
2023-04-26T07:35:35.002Z,60.70
2023-04-26T07:36:34.999Z,59.75
2023-04-26T07:37:34.982Z,58.36
2023-04-26T07:38:34.967Z,57.10
2023-04-26T07:39:34.978Z,57.54
2023-04-26T07:40:34.956Z,57.33
2023-04-26T07:41:34.947Z,57.20
2023-04-26T07:42:34.960Z,56.59
2023-04-26T07:43:34.916Z,55.43
2023-04-26T07:44:34.920Z,55.02
2023-04-26T07:45:34.945Z,55.05
2023-04-26T07:46:34.945Z,54.10
2023-04-26T07:47:34.949Z,54.44
2023-04-26T07:48:34.863Z,55.21
2023-04-26T07:49:34.841Z,55.69
2023-04-26T07:50:35.098Z,54.31
2023-04-26T07:51:34.908Z,54.61
2023-04-26T07:52:34.824Z,54.02
2023-04-26T07:53:34.826Z,55.69
2023-04-26T07:54:34.806Z,56.26
2023-04-26T07:55:34.775Z,57.62
2023-04-26T07:56:34.816Z,58.91
2023-04-26T07:57:34.771Z,59.52
2023-04-26T07:58:34.866Z,59.73
2023-04-26T07:59:34.756Z,59.70
2023-04-26T08:00:34.785Z,59.70
2023-04-26T08:01:34.749Z,57.26
2023-04-26T08:02:44.444Z,56.74
2023-04-26T08:03:34.944Z,55.85
2023-04-26T08:04:34.962Z,57.03
2023-04-26T08:05:35.043Z,57.82
2023-04-26T08:06:34.679Z,57.31
2023-04-26T08:07:34.665Z,57.10
2023-04-26T08:08:34.679Z,57.28
2023-04-26T08:09:34.664Z,56.67
2023-04-26T08:10:34.623Z,56.05
2023-04-26T08:11:34.650Z,55.92
2023-04-26T08:12:34.631Z,55.28
2023-04-26T08:13:34.578Z,54.74
2023-04-26T08:14:34.585Z,54.46
2023-04-26T08:15:34.566Z,54.25
2023-04-26T08:16:34.604Z,55.30
2023-04-26T08:17:34.703Z,55.74
2023-04-26T08:18:34.574Z,57.62
2023-04-26T08:19:34.594Z,59.52
2023-04-26T08:20:34.590Z,61.71
2023-04-26T08:21:34.501Z,63.07
2023-04-26T08:22:34.522Z,64.31
2023-04-26T08:23:34.483Z,65.58
2023-04-26T08:24:34.507Z,66.94
2023-04-26T08:25:34.456Z,66.97
2023-04-26T08:26:34.476Z,68.42
2023-04-26T08:27:34.487Z,69.96
2023-04-26T08:28:34.450Z,69.45
2023-04-26T08:29:34.419Z,69.04
2023-04-26T08:30:34.433Z,67.60
2023-04-26T08:31:34.537Z,68.01
2023-04-26T08:32:34.455Z,68.11
2023-04-26T08:33:34.375Z,69.11
2023-04-26T08:34:34.390Z,68.11
2023-04-26T08:35:34.356Z,69.65
2023-04-26T08:36:34.326Z,70.68
2023-04-26T08:37:34.332Z,70.58
2023-04-26T08:38:34.346Z,70.28
2023-04-26T08:39:34.328Z,69.14
2023-04-26T08:40:34.311Z,69.11
2023-04-26T08:41:34.337Z,68.29
2023-04-26T08:43:34.320Z,68.90
2023-04-26T08:44:34.277Z,69.18
2023-04-26T08:45:34.243Z,67.43
2023-04-26T08:46:34.265Z,66.37
2023-04-26T08:47:34.225Z,66.27
2023-04-26T08:48:34.242Z,65.78
2023-04-26T08:49:34.206Z,66.50
2023-04-26T08:50:34.185Z,64.96
2023-04-26T08:51:34.191Z,63.42
2023-04-26T08:52:34.205Z,62.79
2023-04-26T08:53:34.156Z,62.97
2023-04-26T08:54:34.164Z,61.17
2023-04-26T08:55:34.138Z,59.50
2023-04-26T08:56:34.137Z,58.00
2023-04-26T08:57:34.148Z,56.34
2023-04-26T08:58:34.162Z,56.74
2023-04-26T08:59:34.108Z,54.15
2023-04-26T09:00:34.086Z,54.02
2023-04-26T09:01:34.084Z,54.87
2023-04-26T09:02:34.387Z,54.44
2023-04-26T09:03:34.242Z,53.39
2023-04-26T09:04:34.339Z,53.28
2023-04-26T09:05:34.016Z,52.85
2023-04-26T09:06:34.037Z,51.78
2023-04-26T09:07:34.018Z,51.08
2023-04-26T09:08:33.983Z,50.75
2023-04-26T09:09:34.031Z,50.75
2023-04-26T09:10:33.989Z,50.34
2023-04-26T09:11:33.996Z,51.18
2023-04-26T09:12:33.942Z,51.93
2023-04-26T09:13:33.973Z,51.54
2023-04-26T09:14:33.931Z,52.08
2023-04-26T09:15:33.930Z,51.98
2023-04-26T09:16:34.047Z,51.77
2023-04-26T09:17:33.948Z,51.36
2023-04-26T09:18:34.128Z,51.15
2023-04-26T09:19:33.939Z,50.82
2023-04-26T09:20:33.895Z,51.03
2023-04-26T09:21:33.955Z,51.36
2023-04-26T09:22:33.873Z,52.41
2023-04-26T09:23:33.950Z,53.15
2023-04-26T09:24:33.868Z,53.25
2023-04-26T09:25:33.921Z,54.51
2023-04-26T09:26:33.831Z,54.92
2023-04-26T09:27:33.887Z,55.74
2023-04-26T09:28:33.837Z,56.56
2023-04-26T09:29:33.820Z,57.70
2023-04-26T09:30:33.797Z,57.79
2023-04-26T09:31:33.907Z,57.56
2023-04-26T09:32:33.787Z,55.51
2023-04-26T09:33:33.780Z,55.13
2023-04-26T09:34:33.727Z,55.74
2023-04-26T09:35:33.711Z,54.08
2023-04-26T09:36:33.705Z,54.38
2023-04-26T09:37:34.469Z,55.10
2023-04-26T09:38:33.682Z,55.85
2023-04-26T09:39:33.658Z,55.13
2023-04-26T09:40:33.642Z,55.36
2023-04-26T09:41:33.677Z,55.66
2023-04-26T09:42:33.612Z,54.95
2023-04-26T09:43:35.427Z,55.46
2023-04-26T09:44:33.642Z,55.28
2023-04-26T09:45:33.650Z,56.21
2023-04-26T09:46:33.665Z,56.41
2023-04-26T09:47:33.613Z,56.00
2023-04-26T09:48:33.576Z,56.72
2023-04-26T09:49:33.622Z,56.44
2023-04-26T09:50:33.526Z,57.67
2023-04-26T09:51:33.552Z,57.23
2023-04-26T09:52:33.524Z,58.62
2023-04-26T09:53:33.516Z,56.07
2023-04-26T09:54:33.500Z,56.48
2023-04-26T09:55:35.227Z,52.37
2023-04-26T09:56:33.478Z,50.60
2023-04-26T09:57:33.477Z,50.09
2023-04-26T09:58:33.439Z,48.99
2023-04-26T09:59:33.447Z,50.42
2023-04-26T10:00:33.462Z,49.81
2023-04-26T10:01:33.500Z,49.01
2023-04-26T10:02:33.460Z,50.09
2023-04-26T10:03:33.471Z,51.82
2023-04-26T10:04:33.453Z,51.42
2023-04-26T10:05:34.056Z,51.31
2023-04-26T10:06:33.366Z,51.93
2023-04-26T10:07:33.421Z,50.70
2023-04-26T10:08:33.360Z,50.72
2023-04-26T10:09:33.346Z,51.56
2023-04-26T10:10:33.306Z,51.46
2023-04-26T10:11:33.297Z,51.69
2023-04-26T10:12:33.302Z,52.10
2023-04-26T10:13:33.285Z,51.20
2023-04-26T10:14:33.291Z,51.10
2023-04-26T10:15:33.295Z,48.94
2023-04-26T10:16:33.276Z,47.41
2023-04-26T10:17:33.288Z,46.79
2023-04-26T10:18:33.219Z,47.28
2023-04-26T10:19:33.232Z,44.98
2023-04-26T10:20:33.228Z,44.86
2023-04-26T10:21:33.243Z,45.72
2023-04-26T10:22:33.195Z,44.76
2023-04-26T10:23:33.172Z,43.41
2023-04-26T10:24:33.176Z,43.71
2023-04-26T10:25:33.158Z,43.41
2023-04-26T10:26:33.169Z,43.55
2023-04-26T10:27:33.129Z,44.08
2023-04-26T10:28:33.130Z,44.94
2023-04-26T10:29:33.132Z,46.17
2023-04-26T10:30:33.108Z,47.11
2023-04-26T10:31:33.128Z,47.22
2023-04-26T10:32:33.079Z,47.85
2023-04-26T10:33:33.093Z,48.90
2023-04-26T10:34:33.080Z,49.54
2023-04-26T10:35:33.046Z,49.33
2023-04-26T10:36:33.097Z,49.95
2023-04-26T10:37:33.026Z,49.64
2023-04-26T10:38:33.833Z,50.77
2023-04-26T10:39:33.022Z,50.97
2023-04-26T10:40:33.064Z,50.56
2023-04-26T10:41:33.064Z,50.87
2023-04-26T10:42:33.032Z,49.85
2023-04-26T10:43:33.010Z,49.43
2023-04-26T10:44:32.980Z,50.85
2023-04-26T10:45:32.937Z,49.51
2023-04-26T10:46:33.025Z,48.69
2023-04-26T10:47:32.965Z,48.49
2023-04-26T10:48:32.924Z,48.90
2023-04-26T10:49:32.985Z,48.28
2023-04-26T10:50:32.982Z,48.18
2023-04-26T10:51:32.915Z,48.72
2023-04-26T10:52:32.870Z,49.13
2023-04-26T10:53:32.905Z,49.13
2023-04-26T10:54:32.839Z,49.41
2023-04-26T10:55:32.844Z,49.95
2023-04-26T10:56:32.807Z,49.74
2023-04-26T10:57:32.825Z,49.95
2023-04-26T10:58:32.813Z,50.05
2023-04-26T10:59:43.350Z,50.26
2023-04-26T11:00:33.263Z,50.36
2023-04-26T11:01:32.861Z,49.74
2023-04-26T11:02:32.836Z,49.62
2023-04-26T11:03:33.064Z,49.62
2023-04-26T11:04:32.803Z,49.31
2023-04-26T11:05:32.738Z,49.31
2023-04-26T11:06:32.726Z,50.54
2023-04-26T11:07:33.069Z,49.93
2023-04-26T11:08:32.697Z,49.23
2023-04-26T11:09:32.674Z,49.85
2023-04-26T11:10:33.077Z,50.05
2023-04-26T11:11:32.659Z,50.28
2023-04-26T11:12:32.679Z,50.07
2023-04-26T11:13:32.632Z,50.20
2023-04-26T11:14:32.628Z,50.51
2023-04-26T11:15:33.375Z,50.92
2023-04-26T11:16:32.666Z,50.92
2023-04-26T11:17:32.659Z,51.23
2023-04-26T11:18:32.591Z,50.92
2023-04-26T11:19:32.574Z,51.20
2023-04-26T11:20:32.586Z,51.10
2023-04-26T11:21:32.571Z,51.10
2023-04-26T11:22:32.534Z,51.07
2023-04-26T11:23:32.539Z,50.46
2023-04-26T11:24:32.517Z,50.26
2023-04-26T11:25:32.508Z,49.85
2023-04-26T11:26:32.520Z,49.72
2023-04-26T11:27:32.492Z,49.39
2023-04-26T11:28:34.325Z,48.77
2023-04-26T11:29:32.469Z,48.65
2023-04-26T11:30:32.451Z,49.26
2023-04-26T11:31:32.557Z,48.65
2023-04-26T11:32:32.452Z,48.60
2023-04-26T11:33:32.418Z,48.07
2023-04-26T11:34:32.412Z,47.35
2023-04-26T11:35:32.441Z,47.03
2023-04-26T11:36:32.399Z,46.33
2023-04-26T11:37:32.413Z,46.15
2023-04-26T11:38:32.359Z,46.48
2023-04-26T11:39:32.405Z,46.39
2023-04-26T11:40:32.357Z,46.70
2023-04-26T11:41:32.332Z,47.44
2023-04-26T11:42:32.330Z,47.97
2023-04-26T11:43:32.393Z,48.28
2023-04-26T11:44:32.291Z,48.90
2023-04-26T11:45:32.325Z,49.29
2023-04-26T11:46:32.347Z,48.98
2023-04-26T11:47:32.329Z,48.88
2023-04-26T11:48:32.264Z,49.29
2023-04-26T11:49:32.253Z,51.46
2023-04-26T11:50:32.297Z,52.10
2023-04-26T11:51:32.287Z,54.36
2023-04-26T11:52:32.229Z,53.79
2023-04-26T11:53:32.204Z,55.74
2023-04-26T11:54:32.179Z,56.26
2023-04-26T11:55:32.200Z,57.18
2023-04-26T11:56:32.209Z,57.39
2023-04-26T11:57:32.172Z,57.08
2023-04-26T11:58:32.157Z,56.64
2023-04-26T11:59:32.139Z,55.51
2023-04-26T12:00:32.126Z,54.79
2023-04-26T12:01:32.181Z,55.30
2023-04-26T12:02:32.192Z,54.59
2023-04-26T12:03:32.226Z,54.38
2023-04-26T12:04:32.222Z,52.72
2023-04-26T12:05:32.255Z,51.98
2023-04-26T12:06:32.063Z,51.67
2023-04-26T12:07:32.049Z,51.05
2023-04-26T12:08:32.041Z,50.82
2023-04-26T12:09:32.265Z,51.21
2023-04-26T12:10:32.019Z,48.63
2023-04-26T12:11:32.030Z,47.40
2023-04-26T12:12:31.978Z,47.91
2023-04-26T12:13:32.013Z,48.01
2023-04-26T12:14:31.975Z,47.91
2023-04-26T12:15:31.992Z,47.42
2023-04-26T12:16:31.976Z,46.99
2023-04-26T12:17:32.067Z,47.07
2023-04-26T12:18:31.940Z,46.11
2023-04-26T12:19:31.932Z,45.35
2023-04-26T12:20:31.904Z,45.26
2023-04-26T12:21:31.902Z,46.00
2023-04-26T12:22:31.892Z,45.72
2023-04-26T12:23:31.914Z,46.45
2023-04-26T12:24:31.871Z,46.99
2023-04-26T12:25:31.857Z,46.81
2023-04-26T12:26:31.838Z,47.63
2023-04-26T12:27:31.837Z,47.85
2023-04-26T12:28:31.810Z,47.88
2023-04-26T12:29:31.829Z,48.51
2023-04-26T12:30:31.833Z,48.82
2023-04-26T12:31:31.832Z,49.02
2023-04-26T12:32:31.796Z,49.13
2023-04-26T12:33:31.838Z,49.54
2023-04-26T12:34:31.787Z,49.02
2023-04-26T12:35:31.784Z,49.33
2023-04-26T12:36:31.728Z,49.13
2023-04-26T12:37:31.732Z,48.41
2023-04-26T12:38:31.704Z,48.72
2023-04-26T12:39:31.738Z,49.13
2023-04-26T12:40:31.710Z,49.23
2023-04-26T12:41:31.712Z,48.92
2023-04-26T12:42:31.672Z,49.43
2023-04-26T12:43:31.689Z,49.23
2023-04-26T12:44:31.636Z,49.43
2023-04-26T12:45:31.655Z,49.00
2023-04-26T12:46:31.807Z,48.69
2023-04-26T12:47:31.651Z,48.06
2023-04-26T12:48:31.613Z,47.55
2023-04-26T12:49:31.601Z,47.31
2023-04-26T12:50:32.334Z,47.27
2023-04-26T12:51:31.579Z,46.25
2023-04-26T12:52:31.555Z,45.51
2023-04-26T12:53:31.575Z,45.47
2023-04-26T12:54:31.547Z,44.76
2023-04-26T12:55:33.039Z,44.35
2023-04-26T12:56:31.525Z,42.88
2023-04-26T12:57:31.533Z,40.17
2023-04-26T12:58:31.499Z,38.48
2023-04-26T12:59:31.497Z,37.73
2023-04-26T13:00:31.463Z,35.85
2023-04-26T13:01:31.518Z,35.22
2023-04-26T13:02:31.633Z,34.80
2023-04-26T13:03:31.576Z,34.70
2023-04-26T13:04:31.701Z,35.83
2023-04-26T13:05:31.461Z,35.28
2023-04-26T13:06:31.399Z,33.99
2023-04-26T13:07:31.429Z,34.94
2023-04-26T13:08:31.420Z,34.77
2023-04-26T13:09:31.384Z,35.19
2023-04-26T13:10:31.399Z,35.21
2023-04-26T13:11:31.393Z,35.53
2023-04-26T13:12:31.403Z,36.12
2023-04-26T13:13:42.317Z,35.07
2023-04-26T13:14:31.320Z,36.24
2023-04-26T13:15:31.316Z,37.40
2023-04-26T13:16:31.400Z,37.45
2023-04-26T13:17:31.330Z,38.09
2023-04-26T13:18:31.295Z,38.29
2023-04-26T13:19:31.285Z,38.53
2023-04-26T13:20:31.256Z,39.25
2023-04-26T13:21:31.273Z,39.57
2023-04-26T13:22:31.267Z,39.26
2023-04-26T13:23:31.225Z,39.98
2023-04-26T13:24:31.225Z,39.26
2023-04-26T13:25:31.242Z,39.01
2023-04-26T13:26:31.232Z,38.15
2023-04-26T13:27:31.874Z,36.17
2023-04-26T13:28:31.211Z,36.39
2023-04-26T13:29:31.161Z,37.54
2023-04-26T13:30:31.186Z,38.92
2023-04-26T13:31:31.191Z,40.41
2023-04-26T13:32:31.139Z,41.33
2023-04-26T13:33:31.141Z,41.30
2023-04-26T13:34:31.140Z,41.83
2023-04-26T13:35:31.109Z,41.96
2023-04-26T13:36:31.081Z,41.77
2023-04-26T13:37:31.059Z,43.02
2023-04-26T13:38:32.875Z,43.53
2023-04-26T13:39:31.114Z,43.65
2023-04-26T13:40:31.136Z,44.49
2023-04-26T13:41:31.021Z,44.49
2023-04-26T13:42:31.059Z,44.59
2023-04-26T13:43:30.996Z,44.92
2023-04-26T13:44:31.317Z,45.43
2023-04-26T13:45:30.988Z,45.84
2023-04-26T13:46:31.010Z,45.84
2023-04-26T13:47:31.103Z,45.33
2023-04-26T13:48:30.959Z,44.41
2023-04-26T13:49:30.970Z,45.06
2023-04-26T13:50:30.981Z,45.17
2023-04-26T13:51:30.966Z,45.18
2023-04-26T13:52:30.950Z,46.01
2023-04-26T13:53:30.896Z,46.75
2023-04-26T13:54:30.898Z,47.03
2023-04-26T13:55:30.871Z,47.34
2023-04-26T13:56:30.876Z,47.24
2023-04-26T13:57:30.854Z,47.93
2023-04-26T13:58:30.873Z,47.89
2023-04-26T13:59:30.896Z,47.64
2023-04-26T14:00:30.813Z,46.16
2023-04-26T14:01:30.869Z,45.47
2023-04-26T14:02:30.858Z,44.40
2023-04-26T14:03:30.898Z,41.02
2023-04-26T14:04:30.898Z,40.52
2023-04-26T14:05:30.788Z,42.39
2023-04-26T14:06:30.752Z,42.51
2023-04-26T14:07:30.752Z,41.73
2023-04-26T14:08:30.771Z,41.96
2023-04-26T14:09:30.778Z,42.38
2023-04-26T14:10:30.712Z,42.73
2023-04-26T14:11:30.714Z,43.65
2023-04-26T14:12:30.687Z,43.76
2023-04-26T14:13:30.692Z,43.76
2023-04-26T14:14:30.658Z,43.77
2023-04-26T14:15:30.678Z,44.38
2023-04-26T14:16:30.677Z,45.59
2023-04-26T14:17:30.689Z,44.45
2023-04-26T14:18:30.624Z,44.12
2023-04-26T14:19:30.688Z,43.10
2023-04-26T14:20:30.591Z,43.10
2023-04-26T14:21:30.593Z,43.41
2023-04-26T14:22:30.626Z,43.32
2023-04-26T14:23:30.582Z,43.20
2023-04-26T14:24:30.573Z,42.79
2023-04-26T14:25:30.552Z,42.88
2023-04-26T14:26:30.551Z,42.16
2023-04-26T14:27:30.534Z,42.16
2023-04-26T14:28:30.523Z,41.42
2023-04-26T14:29:30.505Z,41.41
2023-04-26T14:30:30.627Z,41.22
2023-04-26T14:31:30.571Z,41.77
2023-04-26T14:32:30.533Z,41.20
2023-04-26T14:33:30.466Z,39.72
2023-04-26T14:34:30.461Z,39.19
2023-04-26T14:35:30.433Z,38.12
2023-04-26T14:36:30.428Z,37.58
2023-04-26T14:37:30.419Z,36.65
2023-04-26T14:38:30.460Z,36.66
2023-04-26T14:39:30.387Z,37.41
2023-04-26T14:40:30.383Z,37.51
2023-04-26T14:41:30.361Z,37.43
2023-04-26T14:42:30.410Z,39.21
2023-04-26T14:43:30.429Z,39.94
2023-04-26T14:44:30.444Z,39.11
2023-04-26T14:45:43.470Z,40.20
2023-04-26T14:46:30.332Z,41.89
2023-04-26T14:47:30.340Z,43.06
2023-04-26T14:48:30.297Z,44.41
2023-04-26T14:49:30.276Z,44.51
2023-04-26T14:50:30.268Z,44.84
2023-04-26T14:51:30.276Z,44.64
2023-04-26T14:52:30.252Z,44.73
2023-04-26T14:53:30.231Z,45.04
2023-04-26T14:54:30.216Z,44.14
2023-04-26T14:55:30.221Z,44.55
2023-04-26T14:56:30.243Z,44.76
2023-04-26T14:57:30.222Z,44.96
2023-04-26T14:58:30.220Z,45.27
2023-04-26T14:59:30.191Z,45.37
2023-04-26T15:00:30.165Z,45.89
2023-04-26T15:01:30.192Z,45.57
2023-04-26T15:02:30.205Z,46.30
2023-04-26T15:03:30.401Z,45.68
2023-04-26T15:04:30.448Z,45.76
2023-04-26T15:05:30.207Z,44.51
2023-04-26T15:06:30.177Z,44.61
2023-04-26T15:07:32.489Z,44.41
2023-04-26T15:08:30.087Z,43.20
2023-04-26T15:09:30.774Z,41.96
2023-04-26T15:10:30.224Z,42.16
2023-04-26T15:11:30.111Z,42.29
2023-04-26T15:12:30.121Z,42.49
2023-04-26T15:13:30.049Z,42.91
2023-04-26T15:14:30.026Z,43.76
2023-04-26T15:15:30.003Z,43.57
2023-04-26T15:16:30.092Z,43.98
2023-04-26T15:17:29.999Z,43.98
2023-04-26T15:18:30.002Z,43.77
2023-04-26T15:19:30.022Z,44.29
2023-04-26T15:20:29.961Z,44.06
2023-04-26T15:21:29.969Z,44.70
2023-04-26T15:22:29.990Z,44.06
2023-04-26T15:23:29.937Z,43.18
2023-04-26T15:24:29.908Z,41.92
2023-04-26T15:25:29.894Z,40.96
2023-04-26T15:26:29.866Z,40.23
2023-04-26T15:27:29.878Z,40.03
2023-04-26T15:28:29.889Z,39.53
2023-04-26T15:29:29.873Z,40.19
2023-04-26T15:30:29.879Z,40.69
2023-04-26T15:31:29.894Z,41.12
2023-04-26T15:32:29.859Z,41.30
2023-04-26T15:33:29.872Z,41.42
2023-04-26T15:34:29.853Z,41.00
2023-04-26T15:35:29.871Z,40.57
2023-04-26T15:36:29.774Z,40.47
2023-04-26T15:37:29.827Z,40.37
2023-04-26T15:38:29.761Z,40.92
2023-04-26T15:39:29.746Z,40.47
2023-04-26T15:40:29.734Z,39.23
2023-04-26T15:41:29.751Z,40.20
2023-04-26T15:42:29.706Z,41.79
2023-04-26T15:43:29.691Z,42.53
2023-04-26T15:44:29.712Z,42.83
2023-04-26T15:45:29.685Z,43.37
2023-04-26T15:46:29.741Z,43.90
2023-04-26T15:47:29.717Z,44.00
2023-04-26T15:48:29.632Z,44.00
2023-04-26T15:49:29.630Z,44.20
2023-04-26T15:50:29.673Z,44.31
2023-04-26T15:51:29.636Z,43.79
2023-04-26T15:52:29.591Z,43.67
2023-04-26T15:53:29.684Z,43.26
2023-04-26T15:54:29.647Z,43.49
2023-04-26T15:55:29.556Z,43.90
2023-04-26T15:56:29.555Z,43.90
2023-04-26T15:57:29.544Z,44.12
2023-04-26T15:58:29.534Z,44.02
2023-04-26T15:59:29.525Z,44.12
2023-04-26T16:00:29.520Z,44.43
2023-04-26T16:01:29.545Z,44.53
2023-04-26T16:02:29.538Z,44.32
2023-04-26T16:03:29.605Z,43.82
2023-04-26T16:04:29.634Z,43.71
2023-04-26T16:05:29.574Z,44.14
2023-04-26T16:06:29.435Z,44.35
2023-04-26T16:07:29.422Z,44.24
2023-04-26T16:08:40.066Z,44.55
2023-04-26T16:09:29.436Z,44.45
2023-04-26T16:10:29.413Z,44.65
2023-04-26T16:11:29.422Z,44.45
2023-04-26T16:12:29.394Z,44.14
2023-04-26T16:13:29.445Z,44.24
2023-04-26T16:14:29.365Z,44.55
2023-04-26T16:15:29.468Z,44.24
2023-04-26T16:16:29.402Z,43.73
2023-04-26T16:17:29.385Z,43.84
2023-04-26T16:18:29.320Z,44.96
2023-04-26T16:19:29.305Z,44.96
2023-04-26T16:20:29.323Z,44.86
2023-04-26T16:21:29.281Z,44.86
2023-04-26T16:22:29.285Z,45.17
2023-04-26T16:23:29.284Z,45.37
2023-04-26T16:24:29.278Z,45.37
2023-04-26T16:25:29.263Z,45.78
2023-04-26T16:26:29.352Z,45.78
2023-04-26T16:27:29.225Z,45.27
2023-04-26T16:28:29.223Z,45.47
2023-04-26T16:29:29.200Z,45.68
2023-04-26T16:30:29.335Z,45.80
2023-04-26T16:31:29.233Z,46.01
2023-04-26T16:32:29.207Z,46.42
2023-04-26T16:33:29.177Z,46.42
2023-04-26T16:34:29.146Z,46.42
2023-04-26T16:35:29.169Z,46.52
2023-04-26T16:36:29.119Z,46.83
2023-04-26T16:37:29.119Z,46.93
2023-04-26T16:38:29.086Z,46.70
2023-04-26T16:39:29.146Z,45.84
2023-04-26T16:40:29.114Z,44.78
2023-04-26T16:41:29.079Z,44.02
2023-04-26T16:42:29.081Z,43.37
2023-04-26T16:43:29.039Z,42.43
2023-04-26T16:44:29.084Z,41.57
2023-04-26T16:45:29.024Z,41.05
2023-04-26T16:46:29.075Z,40.30
2023-04-26T16:47:28.986Z,39.80
2023-04-26T16:48:28.999Z,40.86
2023-04-26T16:49:29.010Z,40.43
2023-04-26T16:50:28.970Z,39.82
2023-04-26T16:51:29.011Z,39.80
2023-04-26T16:52:28.938Z,40.45
2023-04-26T16:53:28.941Z,41.73